Stepps, United Kingdom
Current Conditions -  °F | °C
As of 2:20 PM on Friday 19 Dec 2014 (Local Time) from EGPF Reporting Station
Light Rain Light Rain  
Wind Chill: 37°   Ceiling: 3100
Heat Index: 45°   Visibility: 6mi
Dew Point: 37°   Wind: 17mph
Humidity: 76%   Direction: 260°W
Pressure: 29.68"   Gusts: 30mph
Location:  55.89°N, 4.15°W
Report Text: EGPF 191420Z AUTO 26015G26KT 230V300 9999 -RA FEW010 BKN031 07/03 Q1005
Loading
Personal Weather Stations






























Interactive Weather Map New forecast layout! Learn more

10-Day Weather Forecast

Advertisements
Track Severe Weather on mobile